sensor_id;sensor_type;location;lat;lon;timestamp;temperature;humidity
2721;DHT22;1368;49.484;11.112;2023-08-31T00:02:02;16.00;99.90
2721;DHT22;1368;49.484;11.112;2023-08-31T00:04:29;15.70;99.90
2721;DHT22;1368;49.484;11.112;2023-08-31T00:06:55;15.90;99.90
2721;DHT22;1368;49.484;11.112;2023-08-31T00:09:24;16.00;99.90
2721;DHT22;1368;49.484;11.112;2023-08-31T00:11:50;16.10;99.90
2721;DHT22;1368;49.484;11.112;2023-08-31T00:14:16;16.10;99.90
2721;DHT22;1368;49.484;11.112;2023-08-31T00:16:43;16.10;99.90
2721;DHT22;1368;49.484;11.112;2023-08-31T00:19:11;16.20;99.90
2721;DHT22;1368;49.484;11.112;2023-08-31T00:21:37;16.70;99.90
2721;DHT22;1368;49.484;11.112;2023-08-31T00:24:03;16.70;99.90
2721;DHT22;1368;49.484;11.112;2023-08-31T00:26:29;16.10;99.90
2721;DHT22;1368;49.484;11.112;2023-08-31T00:28:56;15.90;99.90
2721;DHT22;1368;49.484;11.112;2023-08-31T00:31:22;15.90;99.90
2721;DHT22;1368;49.484;11.112;2023-08-31T00:33:47;16.30;99.90
2721;DHT22;1368;49.484;11.112;2023-08-31T00:36:14;16.40;99.90
2721;DHT22;1368;49.484;11.112;2023-08-31T00:38:40;15.10;99.90
2721;DHT22;1368;49.484;11.112;2023-08-31T00:41:05;15.20;99.90
2721;DHT22;1368;49.484;11.112;2023-08-31T00:43:31;15.30;99.90
2721;DHT22;1368;49.484;11.112;2023-08-31T00:45:57;14.90;99.90
2721;DHT22;1368;49.484;11.112;2023-08-31T00:48:24;15.00;99.90
2721;DHT22;1368;49.484;11.112;2023-08-31T00:50:50;15.20;99.90
2721;DHT22;1368;49.484;11.112;2023-08-31T00:53:17;15.30;99.90
2721;DHT22;1368;49.484;11.112;2023-08-31T00:55:44;15.70;99.90
2721;DHT22;1368;49.484;11.112;2023-08-31T00:58:10;15.70;99.90
2721;DHT22;1368;49.484;11.112;2023-08-31T01:01:39;16.20;99.90
2721;DHT22;1368;49.484;11.112;2023-08-31T01:09:06;15.70;99.90
2721;DHT22;1368;49.484;11.112;2023-08-31T01:14:21;15.80;99.90
2721;DHT22;1368;49.484;11.112;2023-08-31T01:16:49;16.50;99.90
2721;DHT22;1368;49.484;11.112;2023-08-31T01:19:39;16.40;99.90
2721;DHT22;1368;49.484;11.112;2023-08-31T01:22:09;15.90;99.90
2721;DHT22;1368;49.484;11.112;2023-08-31T01:24:37;16.00;99.90
2721;DHT22;1368;49.484;11.112;2023-08-31T01:27:03;16.50;99.90
2721;DHT22;1368;49.484;11.112;2023-08-31T01:29:29;15.90;99.90
2721;DHT22;1368;49.484;11.112;2023-08-31T01:31:55;15.80;99.90
2721;DHT22;1368;49.484;11.112;2023-08-31T01:34:20;16.50;99.90
2721;DHT22;1368;49.484;11.112;2023-08-31T01:36:51;16.30;99.90
2721;DHT22;1368;49.484;11.112;2023-08-31T01:39:30;16.30;99.90
2721;DHT22;1368;49.484;11.112;2023-08-31T01:42:02;16.00;99.90
2721;DHT22;1368;49.484;11.112;2023-08-31T01:44:31;16.50;99.90
2721;DHT22;1368;49.484;11.112;2023-08-31T01:47:06;16.10;99.90
2721;DHT22;1368;49.484;11.112;2023-08-31T01:49:39;16.00;99.90
2721;DHT22;1368;49.484;11.112;2023-08-31T01:52:05;16.10;99.90
2721;DHT22;1368;49.484;11.112;2023-08-31T01:54:31;16.10;99.90
2721;DHT22;1368;49.484;11.112;2023-08-31T01:56:57;16.00;99.90
2721;DHT22;1368;49.484;11.112;2023-08-31T01:59:22;16.10;99.90
2721;DHT22;1368;49.484;11.112;2023-08-31T02:01:48;16.00;99.90
2721;DHT22;1368;49.484;11.112;2023-08-31T02:04:14;16.10;99.90
2721;DHT22;1368;49.484;11.112;2023-08-31T02:06:39;16.10;99.90
2721;DHT22;1368;49.484;11.112;2023-08-31T02:09:05;16.00;99.90
2721;DHT22;1368;49.484;11.112;2023-08-31T02:11:31;16.00;99.90
2721;DHT22;1368;49.484;11.112;2023-08-31T02:13:58;16.40;99.90
2721;DHT22;1368;49.484;11.112;2023-08-31T02:16:23;16.00;99.90
2721;DHT22;1368;49.484;11.112;2023-08-31T02:18:49;16.20;99.90
2721;DHT22;1368;49.484;11.112;2023-08-31T02:21:15;15.90;99.90
2721;DHT22;1368;49.484;11.112;2023-08-31T02:23:40;16.00;99.90
2721;DHT22;1368;49.484;11.112;2023-08-31T02:26:06;16.00;99.90
2721;DHT22;1368;49.484;11.112;2023-08-31T02:28:31;16.20;99.90
2721;DHT22;1368;49.484;11.112;2023-08-31T02:30:58;16.10;99.90
2721;DHT22;1368;49.484;11.112;2023-08-31T02:33:25;15.90;99.90
2721;DHT22;1368;49.484;11.112;2023-08-31T02:35:50;15.90;99.90
2721;DHT22;1368;49.484;11.112;2023-08-31T02:38:16;16.40;99.90
2721;DHT22;1368;49.484;11.112;2023-08-31T02:40:41;15.80;99.90
2721;DHT22;1368;49.484;11.112;2023-08-31T02:43:07;15.80;99.90
2721;DHT22;1368;49.484;11.112;2023-08-31T02:45:32;16.10;99.90
2721;DHT22;1368;49.484;11.112;2023-08-31T02:47:58;15.60;99.90
2721;DHT22;1368;49.484;11.112;2023-08-31T02:50:23;15.90;99.90
2721;DHT22;1368;49.484;11.112;2023-08-31T02:52:49;15.40;99.90
2721;DHT22;1368;49.484;11.112;2023-08-31T02:55:15;15.60;99.90
2721;DHT22;1368;49.484;11.112;2023-08-31T02:57:41;15.30;99.90
2721;DHT22;1368;49.484;11.112;2023-08-31T03:00:07;15.30;99.90
2721;DHT22;1368;49.484;11.112;2023-08-31T03:02:38;15.30;99.90
2721;DHT22;1368;49.484;11.112;2023-08-31T03:05:04;15.10;99.90
2721;DHT22;1368;49.484;11.112;2023-08-31T03:07:29;15.10;99.90
2721;DHT22;1368;49.484;11.112;2023-08-31T03:09:55;15.10;99.90
2721;DHT22;1368;49.484;11.112;2023-08-31T03:12:20;15.40;99.90
2721;DHT22;1368;49.484;11.112;2023-08-31T03:14:46;15.00;99.90
2721;DHT22;1368;49.484;11.112;2023-08-31T03:17:12;15.00;99.90
2721;DHT22;1368;49.484;11.112;2023-08-31T03:19:37;14.90;99.90
2721;DHT22;1368;49.484;11.112;2023-08-31T03:22:03;14.80;99.90
2721;DHT22;1368;49.484;11.112;2023-08-31T03:24:28;14.70;99.90
2721;DHT22;1368;49.484;11.112;2023-08-31T03:26:54;14.70;99.90
2721;DHT22;1368;49.484;11.112;2023-08-31T03:29:19;14.70;99.90
2721;DHT22;1368;49.484;11.112;2023-08-31T03:31:46;14.70;99.90
2721;DHT22;1368;49.484;11.112;2023-08-31T03:34:11;14.70;99.90
2721;DHT22;1368;49.484;11.112;2023-08-31T03:36:37;14.60;99.90
2721;DHT22;1368;49.484;11.112;2023-08-31T03:39:03;14.70;99.90
2721;DHT22;1368;49.484;11.112;2023-08-31T03:41:28;14.70;99.90
2721;DHT22;1368;49.484;11.112;2023-08-31T03:43:54;14.70;99.90
2721;DHT22;1368;49.484;11.112;2023-08-31T03:46:19;15.20;99.90
2721;DHT22;1368;49.484;11.112;2023-08-31T03:48:45;14.60;99.90
2721;DHT22;1368;49.484;11.112;2023-08-31T03:51:10;15.10;99.90
2721;DHT22;1368;49.484;11.112;2023-08-31T03:53:36;14.50;99.90
2721;DHT22;1368;49.484;11.112;2023-08-31T03:56:02;14.50;99.90
2721;DHT22;1368;49.484;11.112;2023-08-31T03:58:29;14.50;99.90
2721;DHT22;1368;49.484;11.112;2023-08-31T04:00:55;14.40;99.90
2721;DHT22;1368;49.484;11.112;2023-08-31T04:03:20;14.40;99.90
2721;DHT22;1368;49.484;11.112;2023-08-31T04:05:46;14.60;99.90
2721;DHT22;1368;49.484;11.112;2023-08-31T04:08:13;14.20;99.90
2721;DHT22;1368;49.484;11.112;2023-08-31T04:10:38;14.10;99.90
2721;DHT22;1368;49.484;11.112;2023-08-31T04:13:04;14.10;99.90
2721;DHT22;1368;49.484;11.112;2023-08-31T04:15:29;14.10;99.90
2721;DHT22;1368;49.484;11.112;2023-08-31T04:17:56;14.70;99.90
2721;DHT22;1368;49.484;11.112;2023-08-31T04:20:21;14.00;99.90
2721;DHT22;1368;49.484;11.112;2023-08-31T04:22:47;14.00;99.90
2721;DHT22;1368;49.484;11.112;2023-08-31T04:25:13;14.00;99.90
2721;DHT22;1368;49.484;11.112;2023-08-31T04:27:38;14.30;99.90
2721;DHT22;1368;49.484;11.112;2023-08-31T04:30:05;13.90;99.90
2721;DHT22;1368;49.484;11.112;2023-08-31T04:32:32;13.90;99.90
2721;DHT22;1368;49.484;11.112;2023-08-31T04:34:57;13.90;99.90
2721;DHT22;1368;49.484;11.112;2023-08-31T04:37:23;13.90;99.90
2721;DHT22;1368;49.484;11.112;2023-08-31T04:39:49;14.00;99.90
2721;DHT22;1368;49.484;11.112;2023-08-31T04:42:14;14.00;99.90
2721;DHT22;1368;49.484;11.112;2023-08-31T04:44:42;14.00;99.90
2721;DHT22;1368;49.484;11.112;2023-08-31T04:47:08;13.90;99.90
2721;DHT22;1368;49.484;11.112;2023-08-31T04:49:33;14.00;99.90
2721;DHT22;1368;49.484;11.112;2023-08-31T04:51:59;14.10;99.90
2721;DHT22;1368;49.484;11.112;2023-08-31T04:54:24;14.30;99.90
2721;DHT22;1368;49.484;11.112;2023-08-31T04:56:50;14.10;99.90
2721;DHT22;1368;49.484;11.112;2023-08-31T04:59:16;14.20;99.90
2721;DHT22;1368;49.484;11.112;2023-08-31T05:01:42;14.30;99.90
2721;DHT22;1368;49.484;11.112;2023-08-31T05:04:07;14.40;99.90
2721;DHT22;1368;49.484;11.112;2023-08-31T05:06:33;14.40;99.90
2721;DHT22;1368;49.484;11.112;2023-08-31T05:09:00;14.50;99.90
2721;DHT22;1368;49.484;11.112;2023-08-31T05:11:25;14.50;99.90
2721;DHT22;1368;49.484;11.112;2023-08-31T05:13:51;14.70;99.90
2721;DHT22;1368;49.484;11.112;2023-08-31T05:16:17;14.70;99.90
2721;DHT22;1368;49.484;11.112;2023-08-31T05:18:42;14.70;99.90
2721;DHT22;1368;49.484;11.112;2023-08-31T05:21:08;14.80;99.90
2721;DHT22;1368;49.484;11.112;2023-08-31T05:23:34;14.80;99.90
2721;DHT22;1368;49.484;11.112;2023-08-31T05:26:00;15.10;99.90
2721;DHT22;1368;49.484;11.112;2023-08-31T05:28:27;15.40;99.90
2721;DHT22;1368;49.484;11.112;2023-08-31T05:30:54;15.10;99.90
2721;DHT22;1368;49.484;11.112;2023-08-31T05:33:20;15.20;99.90
2721;DHT22;1368;49.484;11.112;2023-08-31T05:35:47;15.20;99.90
2721;DHT22;1368;49.484;11.112;2023-08-31T05:38:13;15.30;99.90
2721;DHT22;1368;49.484;11.112;2023-08-31T05:40:39;15.40;99.90
2721;DHT22;1368;49.484;11.112;2023-08-31T05:43:04;15.40;99.90
2721;DHT22;1368;49.484;11.112;2023-08-31T05:45:33;15.60;99.90
2721;DHT22;1368;49.484;11.112;2023-08-31T05:48:00;15.50;99.90
2721;DHT22;1368;49.484;11.112;2023-08-31T05:50:26;15.50;99.90
2721;DHT22;1368;49.484;11.112;2023-08-31T05:52:52;15.40;99.90
2721;DHT22;1368;49.484;11.112;2023-08-31T05:55:18;15.40;99.90
2721;DHT22;1368;49.484;11.112;2023-08-31T05:57:43;15.50;99.90
2721;DHT22;1368;49.484;11.112;2023-08-31T06:00:09;15.40;99.90
2721;DHT22;1368;49.484;11.112;2023-08-31T06:02:35;15.50;99.90
2721;DHT22;1368;49.484;11.112;2023-08-31T06:05:01;16.00;99.90
2721;DHT22;1368;49.484;11.112;2023-08-31T06:07:27;16.80;99.90
2721;DHT22;1368;49.484;11.112;2023-08-31T06:09:54;17.50;99.90
2721;DHT22;1368;49.484;11.112;2023-08-31T06:12:20;18.40;99.90
2721;DHT22;1368;49.484;11.112;2023-08-31T06:14:45;19.30;99.90
2721;DHT22;1368;49.484;11.112;2023-08-31T06:17:11;20.60;99.90
2721;DHT22;1368;49.484;11.112;2023-08-31T06:19:38;21.00;99.90
2721;DHT22;1368;49.484;11.112;2023-08-31T06:22:04;21.30;99.90
2721;DHT22;1368;49.484;11.112;2023-08-31T06:24:30;21.40;99.90
2721;DHT22;1368;49.484;11.112;2023-08-31T06:26:55;20.80;99.90
2721;DHT22;1368;49.484;11.112;2023-08-31T06:29:22;20.80;99.90
2721;DHT22;1368;49.484;11.112;2023-08-31T06:31:48;20.80;99.90
2721;DHT22;1368;49.484;11.112;2023-08-31T06:34:13;22.00;99.90
2721;DHT22;1368;49.484;11.112;2023-08-31T06:36:39;22.30;99.90
2721;DHT22;1368;49.484;11.112;2023-08-31T06:39:06;23.10;99.90
2721;DHT22;1368;49.484;11.112;2023-08-31T06:41:31;23.20;99.90
2721;DHT22;1368;49.484;11.112;2023-08-31T06:43:57;23.60;99.90
2721;DHT22;1368;49.484;11.112;2023-08-31T06:46:23;23.60;99.90
2721;DHT22;1368;49.484;11.112;2023-08-31T06:48:48;24.50;99.90
2721;DHT22;1368;49.484;11.112;2023-08-31T06:51:14;24.60;99.90
2721;DHT22;1368;49.484;11.112;2023-08-31T06:53:42;24.60;99.90
2721;DHT22;1368;49.484;11.112;2023-08-31T06:56:08;24.10;99.90
2721;DHT22;1368;49.484;11.112;2023-08-31T06:58:34;23.50;99.90
2721;DHT22;1368;49.484;11.112;2023-08-31T07:01:00;23.20;99.90
2721;DHT22;1368;49.484;11.112;2023-08-31T07:03:25;23.60;99.90
2721;DHT22;1368;49.484;11.112;2023-08-31T07:05:51;23.90;99.90
2721;DHT22;1368;49.484;11.112;2023-08-31T07:08:16;23.50;99.90
2721;DHT22;1368;49.484;11.112;2023-08-31T07:10:42;23.20;99.90
2721;DHT22;1368;49.484;11.112;2023-08-31T07:13:07;23.00;99.90
2721;DHT22;1368;49.484;11.112;2023-08-31T07:15:33;22.70;99.90
2721;DHT22;1368;49.484;11.112;2023-08-31T07:17:59;22.70;99.90
2721;DHT22;1368;49.484;11.112;2023-08-31T07:20:25;22.50;99.90
2721;DHT22;1368;49.484;11.112;2023-08-31T07:22:51;22.70;99.90
2721;DHT22;1368;49.484;11.112;2023-08-31T07:25:16;23.40;99.90
2721;DHT22;1368;49.484;11.112;2023-08-31T07:27:43;22.90;99.90
2721;DHT22;1368;49.484;11.112;2023-08-31T07:30:08;22.90;99.90
2721;DHT22;1368;49.484;11.112;2023-08-31T07:32:35;23.30;99.90
2721;DHT22;1368;49.484;11.112;2023-08-31T07:35:01;23.80;99.90
2721;DHT22;1368;49.484;11.112;2023-08-31T07:37:28;24.20;99.90
2721;DHT22;1368;49.484;11.112;2023-08-31T07:39:53;24.70;99.90
2721;DHT22;1368;49.484;11.112;2023-08-31T07:42:19;24.60;99.90
2721;DHT22;1368;49.484;11.112;2023-08-31T07:44:45;25.00;99.90
2721;DHT22;1368;49.484;11.112;2023-08-31T07:47:10;24.00;99.90
2721;DHT22;1368;49.484;11.112;2023-08-31T07:49:36;23.60;99.90
2721;DHT22;1368;49.484;11.112;2023-08-31T07:52:01;23.80;99.90
2721;DHT22;1368;49.484;11.112;2023-08-31T07:54:28;23.70;99.90
2721;DHT22;1368;49.484;11.112;2023-08-31T07:56:54;23.50;99.90
2721;DHT22;1368;49.484;11.112;2023-08-31T07:59:19;22.90;99.90
2721;DHT22;1368;49.484;11.112;2023-08-31T08:01:45;23.10;99.90
2721;DHT22;1368;49.484;11.112;2023-08-31T08:04:11;22.60;99.90
2721;DHT22;1368;49.484;11.112;2023-08-31T08:06:37;23.00;99.90
2721;DHT22;1368;49.484;11.112;2023-08-31T08:09:03;23.20;99.90
2721;DHT22;1368;49.484;11.112;2023-08-31T08:11:30;23.10;99.90
2721;DHT22;1368;49.484;11.112;2023-08-31T08:13:55;23.10;99.90
2721;DHT22;1368;49.484;11.112;2023-08-31T08:16:21;22.60;99.90
2721;DHT22;1368;49.484;11.112;2023-08-31T08:18:47;22.60;99.90
2721;DHT22;1368;49.484;11.112;2023-08-31T08:21:12;22.50;99.90
2721;DHT22;1368;49.484;11.112;2023-08-31T08:23:38;22.80;99.90
2721;DHT22;1368;49.484;11.112;2023-08-31T08:26:03;23.40;99.90
2721;DHT22;1368;49.484;11.112;2023-08-31T08:28:29;23.50;99.90
2721;DHT22;1368;49.484;11.112;2023-08-31T08:30:54;23.90;99.90
2721;DHT22;1368;49.484;11.112;2023-08-31T08:33:20;23.70;99.90
2721;DHT22;1368;49.484;11.112;2023-08-31T08:35:46;23.70;99.90
2721;DHT22;1368;49.484;11.112;2023-08-31T08:38:11;23.90;99.90
2721;DHT22;1368;49.484;11.112;2023-08-31T08:40:37;23.70;99.90
2721;DHT22;1368;49.484;11.112;2023-08-31T08:43:06;24.10;99.90
2721;DHT22;1368;49.484;11.112;2023-08-31T08:45:37;25.00;99.90
2721;DHT22;1368;49.484;11.112;2023-08-31T08:48:07;25.10;99.90
2721;DHT22;1368;49.484;11.112;2023-08-31T08:50:34;24.10;99.90
2721;DHT22;1368;49.484;11.112;2023-08-31T08:53:01;23.60;99.90
2721;DHT22;1368;49.484;11.112;2023-08-31T08:55:27;23.10;99.90
2721;DHT22;1368;49.484;11.112;2023-08-31T08:57:53;22.80;99.90
2721;DHT22;1368;49.484;11.112;2023-08-31T09:00:19;22.50;99.90
2721;DHT22;1368;49.484;11.112;2023-08-31T09:02:45;22.20;99.90
2721;DHT22;1368;49.484;11.112;2023-08-31T09:05:11;22.10;99.90
2721;DHT22;1368;49.484;11.112;2023-08-31T09:07:38;21.90;99.90
2721;DHT22;1368;49.484;11.112;2023-08-31T09:10:04;21.50;99.90
2721;DHT22;1368;49.484;11.112;2023-08-31T09:12:30;21.30;99.90
2721;DHT22;1368;49.484;11.112;2023-08-31T09:14:59;21.30;99.90
2721;DHT22;1368;49.484;11.112;2023-08-31T09:17:25;21.10;99.90
2721;DHT22;1368;49.484;11.112;2023-08-31T09:20:01;21.00;99.90
2721;DHT22;1368;49.484;11.112;2023-08-31T09:22:31;20.90;99.90
2721;DHT22;1368;49.484;11.112;2023-08-31T09:24:56;20.60;99.90
2721;DHT22;1368;49.484;11.112;2023-08-31T09:27:22;20.60;99.90
2721;DHT22;1368;49.484;11.112;2023-08-31T09:29:50;20.60;99.90
2721;DHT22;1368;49.484;11.112;2023-08-31T09:32:19;20.60;99.90
2721;DHT22;1368;49.484;11.112;2023-08-31T09:34:45;21.40;99.90
2721;DHT22;1368;49.484;11.112;2023-08-31T09:37:10;23.10;99.90
2721;DHT22;1368;49.484;11.112;2023-08-31T09:39:37;23.40;99.90
2721;DHT22;1368;49.484;11.112;2023-08-31T09:42:03;24.30;99.90
2721;DHT22;1368;49.484;11.112;2023-08-31T09:44:29;25.30;99.90
2721;DHT22;1368;49.484;11.112;2023-08-31T09:46:54;26.20;98.40
2721;DHT22;1368;49.484;11.112;2023-08-31T09:49:21;26.70;96.20
2721;DHT22;1368;49.484;11.112;2023-08-31T09:51:49;27.10;95.50
2721;DHT22;1368;49.484;11.112;2023-08-31T09:54:17;27.60;95.40
2721;DHT22;1368;49.484;11.112;2023-08-31T09:56:45;27.90;94.10
2721;DHT22;1368;49.484;11.112;2023-08-31T09:59:13;27.40;92.10
2721;DHT22;1368;49.484;11.112;2023-08-31T10:01:40;26.90;92.80
2721;DHT22;1368;49.484;11.112;2023-08-31T10:04:06;26.70;93.50
2721;DHT22;1368;49.484;11.112;2023-08-31T10:06:35;25.40;93.50
2721;DHT22;1368;49.484;11.112;2023-08-31T10:09:01;25.10;94.90
2721;DHT22;1368;49.484;11.112;2023-08-31T10:11:28;25.80;93.60
2721;DHT22;1368;49.484;11.112;2023-08-31T10:13:55;26.10;94.10
2721;DHT22;1368;49.484;11.112;2023-08-31T10:16:21;26.70;91.80
2721;DHT22;1368;49.484;11.112;2023-08-31T10:18:48;26.40;90.50
2721;DHT22;1368;49.484;11.112;2023-08-31T10:21:17;25.60;92.50
2721;DHT22;1368;49.484;11.112;2023-08-31T10:23:47;25.30;92.90
2721;DHT22;1368;49.484;11.112;2023-08-31T10:26:26;24.90;91.70
2721;DHT22;1368;49.484;11.112;2023-08-31T10:28:53;24.00;93.10
2721;DHT22;1368;49.484;11.112;2023-08-31T10:31:20;24.00;93.70
2721;DHT22;1368;49.484;11.112;2023-08-31T10:36:21;22.50;97.00
2721;DHT22;1368;49.484;11.112;2023-08-31T10:39:01;22.50;95.40
2721;DHT22;1368;49.484;11.112;2023-08-31T10:41:36;22.40;95.60
2721;DHT22;1368;49.484;11.112;2023-08-31T10:44:01;22.30;96.40
2721;DHT22;1368;49.484;11.112;2023-08-31T10:49:21;23.00;95.80
2721;DHT22;1368;49.484;11.112;2023-08-31T10:51:48;22.40;96.90
2721;DHT22;1368;49.484;11.112;2023-08-31T10:54:21;22.30;98.30
2721;DHT22;1368;49.484;11.112;2023-08-31T10:59:51;22.10;98.20
2721;DHT22;1368;49.484;11.112;2023-08-31T11:02:35;22.10;98.30
2721;DHT22;1368;49.484;11.112;2023-08-31T11:07:47;22.00;97.50
2721;DHT22;1368;49.484;11.112;2023-08-31T11:10:25;22.20;97.80
2721;DHT22;1368;49.484;11.112;2023-08-31T11:12:55;22.60;98.40
2721;DHT22;1368;49.484;11.112;2023-08-31T11:15:25;23.20;98.50
2721;DHT22;1368;49.484;11.112;2023-08-31T11:17:52;23.60;97.60
2721;DHT22;1368;49.484;11.112;2023-08-31T11:20:20;24.00;96.60
2721;DHT22;1368;49.484;11.112;2023-08-31T11:22:47;24.40;96.90
2721;DHT22;1368;49.484;11.112;2023-08-31T11:25:18;25.30;96.40
2721;DHT22;1368;49.484;11.112;2023-08-31T11:27:59;25.20;93.10
2721;DHT22;1368;49.484;11.112;2023-08-31T11:30:26;24.70;93.90
2721;DHT22;1368;49.484;11.112;2023-08-31T11:32:52;24.40;93.30
2721;DHT22;1368;49.484;11.112;2023-08-31T11:35:22;24.00;93.20
2721;DHT22;1368;49.484;11.112;2023-08-31T11:37:55;24.10;95.80
2721;DHT22;1368;49.484;11.112;2023-08-31T11:40:21;24.10;95.40
2721;DHT22;1368;49.484;11.112;2023-08-31T11:42:48;24.20;93.70
2721;DHT22;1368;49.484;11.112;2023-08-31T11:45:15;24.80;96.20
2721;DHT22;1368;49.484;11.112;2023-08-31T11:47:43;24.90;94.40
2721;DHT22;1368;49.484;11.112;2023-08-31T11:50:11;24.90;93.60
2721;DHT22;1368;49.484;11.112;2023-08-31T11:52:39;24.80;94.80
2721;DHT22;1368;49.484;11.112;2023-08-31T11:55:11;24.20;94.30
2721;DHT22;1368;49.484;11.112;2023-08-31T11:57:37;23.70;93.10
2721;DHT22;1368;49.484;11.112;2023-08-31T12:00:03;23.60;93.40
2721;DHT22;1368;49.484;11.112;2023-08-31T12:02:35;23.40;93.90
2721;DHT22;1368;49.484;11.112;2023-08-31T12:05:01;23.20;93.70
2721;DHT22;1368;49.484;11.112;2023-08-31T12:07:26;23.10;95.20
2721;DHT22;1368;49.484;11.112;2023-08-31T12:09:52;23.00;94.50
2721;DHT22;1368;49.484;11.112;2023-08-31T12:12:20;23.50;95.70
2721;DHT22;1368;49.484;11.112;2023-08-31T12:14:47;23.00;95.20
2721;DHT22;1368;49.484;11.112;2023-08-31T12:17:12;23.50;96.10
2721;DHT22;1368;49.484;11.112;2023-08-31T12:19:38;23.50;96.70
2721;DHT22;1368;49.484;11.112;2023-08-31T12:22:05;24.60;95.60
2721;DHT22;1368;49.484;11.112;2023-08-31T12:24:37;24.60;95.40
2721;DHT22;1368;49.484;11.112;2023-08-31T12:27:04;24.40;94.60
2721;DHT22;1368;49.484;11.112;2023-08-31T12:29:31;24.70;94.30
2721;DHT22;1368;49.484;11.112;2023-08-31T12:31:56;24.70;94.00
2721;DHT22;1368;49.484;11.112;2023-08-31T12:34:23;24.70;94.40
2721;DHT22;1368;49.484;11.112;2023-08-31T12:36:48;24.80;92.80
2721;DHT22;1368;49.484;11.112;2023-08-31T12:39:14;24.50;92.30
2721;DHT22;1368;49.484;11.112;2023-08-31T12:41:40;24.40;92.00
2721;DHT22;1368;49.484;11.112;2023-08-31T12:44:06;24.50;92.20
2721;DHT22;1368;49.484;11.112;2023-08-31T12:46:32;24.60;92.30
2721;DHT22;1368;49.484;11.112;2023-08-31T12:48:59;24.40;93.40
2721;DHT22;1368;49.484;11.112;2023-08-31T12:51:26;24.30;93.20
2721;DHT22;1368;49.484;11.112;2023-08-31T12:53:51;24.30;93.20
2721;DHT22;1368;49.484;11.112;2023-08-31T12:56:17;24.60;93.00
2721;DHT22;1368;49.484;11.112;2023-08-31T12:58:51;25.40;93.20
2721;DHT22;1368;49.484;11.112;2023-08-31T13:01:17;25.50;93.30
2721;DHT22;1368;49.484;11.112;2023-08-31T13:03:43;25.30;92.80
2721;DHT22;1368;49.484;11.112;2023-08-31T13:06:09;24.80;91.50
2721;DHT22;1368;49.484;11.112;2023-08-31T13:08:34;24.20;92.50
2721;DHT22;1368;49.484;11.112;2023-08-31T13:11:00;24.10;92.10
2721;DHT22;1368;49.484;11.112;2023-08-31T13:13:26;24.40;92.30
2721;DHT22;1368;49.484;11.112;2023-08-31T13:15:51;24.20;93.50
2721;DHT22;1368;49.484;11.112;2023-08-31T13:18:17;25.00;91.80
2721;DHT22;1368;49.484;11.112;2023-08-31T13:20:53;25.00;91.50
2721;DHT22;1368;49.484;11.112;2023-08-31T13:23:20;24.40;92.50
2721;DHT22;1368;49.484;11.112;2023-08-31T13:25:45;24.30;92.70
2721;DHT22;1368;49.484;11.112;2023-08-31T13:28:11;24.30;92.00
2721;DHT22;1368;49.484;11.112;2023-08-31T13:30:37;24.40;91.60
2721;DHT22;1368;49.484;11.112;2023-08-31T13:33:02;24.50;92.20
2721;DHT22;1368;49.484;11.112;2023-08-31T13:35:30;24.20;92.00
2721;DHT22;1368;49.484;11.112;2023-08-31T13:37:55;24.10;92.10
2721;DHT22;1368;49.484;11.112;2023-08-31T13:40:21;24.00;92.00
2721;DHT22;1368;49.484;11.112;2023-08-31T13:42:54;23.70;91.90
2721;DHT22;1368;49.484;11.112;2023-08-31T13:45:22;24.10;93.30
2721;DHT22;1368;49.484;11.112;2023-08-31T13:47:47;23.20;92.60
2721;DHT22;1368;49.484;11.112;2023-08-31T13:50:15;23.50;92.40
2721;DHT22;1368;49.484;11.112;2023-08-31T13:52:40;23.20;93.50
2721;DHT22;1368;49.484;11.112;2023-08-31T13:55:07;23.00;92.20
2721;DHT22;1368;49.484;11.112;2023-08-31T13:57:32;22.90;93.60
2721;DHT22;1368;49.484;11.112;2023-08-31T13:59:58;23.40;93.40
2721;DHT22;1368;49.484;11.112;2023-08-31T14:02:25;23.20;93.70
2721;DHT22;1368;49.484;11.112;2023-08-31T14:04:50;23.10;92.90
2721;DHT22;1368;49.484;11.112;2023-08-31T14:07:16;23.20;93.30
2721;DHT22;1368;49.484;11.112;2023-08-31T14:09:42;23.20;94.20
2721;DHT22;1368;49.484;11.112;2023-08-31T14:12:07;23.00;92.90
2721;DHT22;1368;49.484;11.112;2023-08-31T14:14:33;23.10;93.20
2721;DHT22;1368;49.484;11.112;2023-08-31T14:16:59;23.30;93.70
2721;DHT22;1368;49.484;11.112;2023-08-31T14:19:25;23.50;92.30
2721;DHT22;1368;49.484;11.112;2023-08-31T14:21:51;23.00;92.70
2721;DHT22;1368;49.484;11.112;2023-08-31T14:24:18;23.10;92.90
2721;DHT22;1368;49.484;11.112;2023-08-31T14:26:44;23.40;93.90
2721;DHT22;1368;49.484;11.112;2023-08-31T14:29:10;23.50;92.50
2721;DHT22;1368;49.484;11.112;2023-08-31T14:31:36;23.20;93.30
2721;DHT22;1368;49.484;11.112;2023-08-31T14:34:01;23.20;92.50
2721;DHT22;1368;49.484;11.112;2023-08-31T14:36:27;23.20;93.00
2721;DHT22;1368;49.484;11.112;2023-08-31T14:38:53;23.00;92.50
2721;DHT22;1368;49.484;11.112;2023-08-31T14:41:18;23.10;93.70
2721;DHT22;1368;49.484;11.112;2023-08-31T14:43:44;23.20;93.20
2721;DHT22;1368;49.484;11.112;2023-08-31T14:46:09;23.10;91.80
2721;DHT22;1368;49.484;11.112;2023-08-31T14:48:35;22.70;92.50
2721;DHT22;1368;49.484;11.112;2023-08-31T14:51:38;23.00;92.80
2721;DHT22;1368;49.484;11.112;2023-08-31T14:54:03;22.20;92.40
2721;DHT22;1368;49.484;11.112;2023-08-31T14:56:29;22.00;91.60
2721;DHT22;1368;49.484;11.112;2023-08-31T14:58:54;21.90;91.70
2721;DHT22;1368;49.484;11.112;2023-08-31T15:01:20;21.90;91.90
2721;DHT22;1368;49.484;11.112;2023-08-31T15:03:45;21.50;91.60
2721;DHT22;1368;49.484;11.112;2023-08-31T15:06:11;21.90;92.30
2721;DHT22;1368;49.484;11.112;2023-08-31T15:08:38;21.60;92.40
2721;DHT22;1368;49.484;11.112;2023-08-31T15:11:04;21.50;93.60
2721;DHT22;1368;49.484;11.112;2023-08-31T15:13:29;21.80;93.50
2721;DHT22;1368;49.484;11.112;2023-08-31T15:15:55;21.60;92.10
2721;DHT22;1368;49.484;11.112;2023-08-31T15:18:21;21.80;92.30
2721;DHT22;1368;49.484;11.112;2023-08-31T15:20:47;21.60;92.90
2721;DHT22;1368;49.484;11.112;2023-08-31T15:23:13;21.50;92.70
2721;DHT22;1368;49.484;11.112;2023-08-31T15:25:39;21.40;93.30
2721;DHT22;1368;49.484;11.112;2023-08-31T15:28:04;21.20;93.40
2721;DHT22;1368;49.484;11.112;2023-08-31T15:30:30;21.20;93.90
2721;DHT22;1368;49.484;11.112;2023-08-31T15:33:01;21.10;93.60
2721;DHT22;1368;49.484;11.112;2023-08-31T15:35:28;21.60;94.30
2721;DHT22;1368;49.484;11.112;2023-08-31T15:37:53;21.20;94.50
2721;DHT22;1368;49.484;11.112;2023-08-31T15:40:19;21.10;94.30
2721;DHT22;1368;49.484;11.112;2023-08-31T15:42:45;21.00;94.90
2721;DHT22;1368;49.484;11.112;2023-08-31T15:45:10;20.90;93.30
2721;DHT22;1368;49.484;11.112;2023-08-31T15:47:36;21.10;94.80
2721;DHT22;1368;49.484;11.112;2023-08-31T15:50:02;20.60;94.30
2721;DHT22;1368;49.484;11.112;2023-08-31T15:52:28;20.50;94.60
2721;DHT22;1368;49.484;11.112;2023-08-31T15:54:54;20.50;94.90
2721;DHT22;1368;49.484;11.112;2023-08-31T15:57:20;20.80;95.00
2721;DHT22;1368;49.484;11.112;2023-08-31T15:59:46;20.80;94.90
2721;DHT22;1368;49.484;11.112;2023-08-31T16:02:15;20.50;95.40